Holcomb, IL

4:52 PM CDT on September 01, 2014 (GMT -0500)
Highland Elementary | Change Station
CLOSE
Current Station
Personal Weather Station
Location: Stillman Valley, IL
Elevation: 755 ft
Nearby Weather Stations

Elev 755 ft 42.10 °N, 89.18 °W | Updated 2 minutes ago

Mostly Cloudy
Mostly Cloudy
79.8 °F
Feels Like 83 °F
N
9.0
Wind Variable Wind from SW
Gusts 20.0 mph

Today
High -- | Low -- °F
--% Chance of Precip.
Yesterday
High -- | Low -- °F
Precip. -- in
6:21 AM 7:30 PM
Waxing Crescent, 44% visible
Pressure 29.75 in
Visibility 10.0 miles
Clouds Scattered Clouds 3300 ft
Mostly Cloudy 5000 ft
Mostly Cloudy 15000 ft
Heat Index 83 °F
Dew Point 69 °F
Humidity 70%
Rainfall 0.00 in
Snow Depth Not available.
UV 3 out of 12
Pollen 6.30 out of 12
Ozone Good
PM2.5 Good
Flu Activity Not available.
METAR KRFD 012054Z 24014G19KT 10SM SCT033 BKN050 BKN150 27/18 A2976 RMK AO2 SLP073 T02720183 55005 $

More Conditions Fewer Conditions

Pressure 29.75 in
Visibility 10.0 miles
Clouds Scattered Clouds 3300 ft
Mostly Cloudy 5000 ft
Mostly Cloudy 15000 ft
Heat Index 83 °F
Dew Point 69 °F
Humidity 70%
Rainfall 0.00 in
Snow Depth Not available.
UV 3 out of 12
Pollen 6.30 out of 12
Ozone Good
PM2.5 Good
Flu Activity Not available.
METAR KRFD 012054Z 24014G19KT 10SM SCT033 BKN050 BKN150 27/18 A2976 RMK AO2 SLP073 T02720183 55005 $

More Conditions Fewer Conditions

10-Day Weather Forecast

Almanac

Astronomy

Sep. 01, 2014 Rise Set
Actual Time 6:21 AM CDT 7:30 PM CDT
Civil Twilight 5:53 AM CDT 7:58 PM CDT
Nautical Twilight 5:18 AM CDT 8:32 PM CDT
Astronomical Twilight 4:42 AM CDT 9:08 PM CDT
Moon 1:14 PM CDT 11:24 PM CDT
Length of Visible Light 14h 05m
Length of Day
13h 08m
Tomorrow will be 2m 43s shorter.
Waxing Crescent, 44% of the Moon is Illuminated
Today
Waxing Crescent
Sep 2
First Quarter
Sep 8
Full
Sep 15
Last Quarter
Sep 24
New

Today's Extremes

State Highs State Lows

Community

WunderPhotos

Upload Photos

1,749,417 photos uploaded!

Nearby

Air Quality

  Air Quality AQ Index Pollutant
Yesterday Good
PM2.5
Yesterday Good
OZONE
Current Good
OZONE
Current Good
PM2.5
Monday Moderate
PM2.5
Tuesday Good
PM2.5

Snow Depth

Station Depth Elevation
No new snow has been reported.

Earthquake Activity

City Distance Mag. Time & Date
No recent earthquake activity has been reported nearby.
Minimum magnitude displayed is 2.5.

Coastal Water Temperatures

Place Temperature
No Stations Reporting

Nearby Weather Stations